Terminal Aerodrome Forecast
Issued by NWS Northern Indiana

Home | Current Version | Previous Version | Text Only | Print | Product List | Glossary Off
Versions: 1 2 3 4 5 6 7 8 9 10

000
FTUS43 KIWX 281600 AAA
TAFFWA
TAF AMD
KFWA 281621Z 2816/2912 29007KT P6SM SCT020 OVC030
     FM282230 36004KT P6SM SCT035 BKN200=

USA.gov is the U.S. government's official web portal to all federal, state and local government web resources and services.